createdAt,value
2019-04-14T00:00:46.928Z,7.07
2019-04-14T00:01:47.705Z,7.08
2019-04-14T00:02:46.974Z,7.18
2019-04-14T00:03:47.605Z,7.18
2019-04-14T00:04:46.861Z,7.18
2019-04-14T00:05:47.263Z,7.19
2019-04-14T00:06:46.838Z,7.19
2019-04-14T00:07:47.186Z,7.21
2019-04-14T00:08:47.843Z,7.10
2019-04-14T00:09:47.503Z,7.04
2019-04-14T00:10:46.816Z,6.89
2019-04-14T00:11:48.006Z,6.91
2019-04-14T00:12:47.041Z,6.93
2019-04-14T00:13:47.829Z,6.82
2019-04-14T00:14:47.013Z,6.78
2019-04-14T00:15:49.093Z,6.79
2019-04-14T00:16:46.818Z,6.88
2019-04-14T00:17:47.840Z,6.71
2019-04-14T00:18:46.980Z,6.64
2019-04-14T00:19:47.810Z,6.49
2019-04-14T00:20:46.942Z,6.60
2019-04-14T00:21:47.607Z,6.60
2019-04-14T00:22:46.879Z,6.60
2019-04-14T00:23:47.733Z,6.79
2019-04-14T00:24:46.801Z,7.16
2019-04-14T00:25:47.669Z,7.26
2019-04-14T00:26:46.769Z,7.22
2019-04-14T00:27:47.569Z,7.28
2019-04-14T00:28:46.963Z,7.29
2019-04-14T00:29:47.845Z,7.42
2019-04-14T00:30:46.995Z,7.37
2019-04-14T00:31:47.652Z,7.26
2019-04-14T00:32:46.630Z,7.21
2019-04-14T00:33:47.564Z,7.11
2019-04-14T00:34:46.535Z,7.15
2019-04-14T00:35:47.149Z,7.15
2019-04-14T00:36:46.509Z,7.19
2019-04-14T00:37:46.673Z,7.19
2019-04-14T00:38:47.554Z,7.19
2019-04-14T00:39:46.640Z,7.18
2019-04-14T00:40:47.550Z,7.24
2019-04-14T00:41:51.977Z,7.29
2019-04-14T00:42:47.439Z,7.34
2019-04-14T00:43:46.429Z,7.46
2019-04-14T00:44:47.378Z,7.34
2019-04-14T00:45:52.715Z,7.36
2019-04-14T00:46:47.523Z,7.28
2019-04-14T00:47:57.184Z,7.11
2019-04-14T00:48:47.450Z,7.03
2019-04-14T00:49:46.368Z,6.85
2019-04-14T00:50:47.374Z,6.63
2019-04-14T00:51:46.367Z,6.55
2019-04-14T00:52:46.329Z,6.32
2019-04-14T00:53:46.725Z,6.40
2019-04-14T00:54:46.316Z,6.30
2019-04-14T00:55:46.622Z,6.11
2019-04-14T00:56:46.288Z,6.27
2019-04-14T00:57:46.395Z,6.75
2019-04-14T00:58:47.439Z,7.00
2019-04-14T00:59:46.426Z,7.28
2019-04-14T01:00:47.325Z,7.43
2019-04-14T01:01:46.232Z,7.37
2019-04-14T01:02:47.180Z,7.31
2019-04-14T01:03:46.212Z,7.31
2019-04-14T01:04:46.908Z,7.26
2019-04-14T01:05:46.184Z,7.29
2019-04-14T01:06:46.927Z,7.25
2019-04-14T01:07:46.163Z,7.29
2019-04-14T01:08:46.833Z,7.46
2019-04-14T01:09:46.437Z,7.43
2019-04-14T01:10:46.132Z,7.43
2019-04-14T01:11:46.499Z,7.40
2019-04-14T01:12:47.393Z,7.40
2019-04-14T01:13:46.312Z,7.44
2019-04-14T01:14:47.320Z,7.55
2019-04-14T01:15:54.871Z,7.55
2019-04-14T01:16:47.341Z,7.54
2019-04-14T01:17:46.189Z,7.46
2019-04-14T01:18:47.193Z,7.50
2019-04-14T01:19:46.072Z,7.60
2019-04-14T01:20:47.020Z,7.44
2019-04-14T01:21:46.007Z,7.54
2019-04-14T01:22:46.726Z,7.54
2019-04-14T01:23:45.990Z,7.55
2019-04-14T01:24:46.852Z,7.55
2019-04-14T01:25:45.974Z,7.58
2019-04-14T01:26:46.368Z,7.69
2019-04-14T01:27:45.944Z,7.77
2019-04-14T01:28:46.202Z,7.88
2019-04-14T01:29:45.923Z,7.87
2019-04-14T01:30:45.937Z,7.96
2019-04-14T01:31:47.036Z,7.91
2019-04-14T01:32:45.892Z,7.80
2019-04-14T01:33:46.876Z,7.78
2019-04-14T01:34:45.864Z,7.73
2019-04-14T01:35:46.703Z,7.94
2019-04-14T01:36:45.854Z,7.96
2019-04-14T01:37:46.458Z,7.91
2019-04-14T01:38:47.029Z,8.10
2019-04-14T01:39:46.073Z,8.05
2019-04-14T01:40:46.680Z,8.16
2019-04-14T01:41:45.794Z,8.16
2019-04-14T01:42:46.373Z,8.16
2019-04-14T01:43:45.769Z,8.17
2019-04-14T01:44:46.062Z,8.24
2019-04-14T01:45:58.092Z,8.26
2019-04-14T01:46:47.790Z,8.38
2019-04-14T01:47:46.718Z,8.31
2019-04-14T01:48:45.715Z,8.28
2019-04-14T01:49:46.604Z,8.21
2019-04-14T01:50:45.703Z,8.21
2019-04-14T01:51:46.359Z,8.16
2019-04-14T01:52:45.823Z,8.23
2019-04-14T01:53:46.691Z,8.19
2019-04-14T01:54:45.647Z,8.17
2019-04-14T01:55:46.244Z,8.06
2019-04-14T01:56:45.626Z,8.13
2019-04-14T01:57:45.950Z,8.10
2019-04-14T01:58:46.670Z,8.06
2019-04-14T01:59:46.028Z,8.10
2019-04-14T02:00:46.685Z,8.24
2019-04-14T02:01:45.741Z,8.21
2019-04-14T02:02:46.516Z,8.14
2019-04-14T02:03:45.633Z,8.24
2019-04-14T02:04:46.412Z,8.16
2019-04-14T02:05:45.529Z,8.49
2019-04-14T02:06:46.238Z,8.39
2019-04-14T02:07:45.510Z,8.42
2019-04-14T02:08:45.937Z,8.32
2019-04-14T02:09:46.741Z,8.37
2019-04-14T02:10:45.651Z,8.44
2019-04-14T02:11:46.632Z,8.41
2019-04-14T02:12:45.459Z,8.42
2019-04-14T02:13:46.457Z,8.46
2019-04-14T02:14:45.435Z,8.44
2019-04-14T02:15:46.463Z,8.32
2019-04-14T02:16:52.163Z,8.31
2019-04-14T02:17:46.401Z,8.23
2019-04-14T02:18:45.391Z,8.24
2019-04-14T02:19:46.003Z,8.09
2019-04-14T02:20:45.373Z,8.12
2019-04-14T02:21:45.685Z,8.02
2019-04-14T02:22:46.327Z,7.94
2019-04-14T02:23:45.427Z,7.80
2019-04-14T02:24:45.999Z,7.76
2019-04-14T02:25:45.327Z,7.69
2019-04-14T02:26:45.939Z,7.87
2019-04-14T02:27:45.292Z,7.95
2019-04-14T02:28:46.167Z,7.88
2019-04-14T02:29:45.272Z,7.92
2019-04-14T02:30:54.034Z,7.99
2019-04-14T02:32:17.969Z,8.01
2019-04-14T02:33:17.277Z,7.91
2019-04-14T02:34:21.968Z,8.02
2019-04-14T02:35:13.636Z,7.96
2019-04-14T02:37:22.960Z,7.91
2019-04-14T02:39:14.008Z,7.86
2019-04-14T02:42:26.034Z,8.09
2019-04-14T02:43:14.322Z,8.09
2019-04-14T02:44:15.837Z,8.13
2019-04-14T02:45:19.104Z,7.95
2019-04-14T02:46:10.387Z,7.86
2019-04-14T02:48:33.342Z,7.68
2019-04-14T02:49:11.221Z,7.68
2019-04-14T02:51:15.900Z,7.60
2019-04-14T02:52:14.377Z,7.60
2019-04-14T02:53:18.381Z,7.57
2019-04-14T02:54:13.821Z,7.57
2019-04-14T02:55:08.765Z,7.49
2019-04-14T02:56:16.390Z,7.60
2019-04-14T02:57:17.697Z,7.69
2019-04-14T03:00:21.626Z,7.73
2019-04-14T03:01:21.588Z,7.68
2019-04-14T03:02:27.048Z,7.58
2019-04-14T03:03:16.111Z,7.60
2019-04-14T03:04:17.011Z,7.64
2019-04-14T03:05:10.012Z,7.66
2019-04-14T03:07:16.623Z,7.76
2019-04-14T03:08:22.278Z,7.91
2019-04-14T03:10:10.973Z,7.83
2019-04-14T03:11:09.538Z,7.77
2019-04-14T03:12:13.956Z,7.81
2019-04-14T03:13:15.305Z,7.87
2019-04-14T03:15:11.300Z,7.83
2019-04-14T03:16:13.762Z,7.87
2019-04-14T03:18:24.473Z,7.86
2019-04-14T03:19:10.435Z,7.91
2019-04-14T03:21:13.443Z,7.92
2019-04-14T03:22:25.965Z,7.88
2019-04-14T03:23:19.163Z,7.96
2019-04-14T03:25:00.501Z,8.06
2019-04-14T03:26:05.071Z,7.98
2019-04-14T03:27:15.301Z,7.96
2019-04-14T03:28:06.991Z,8.09
2019-04-14T03:29:19.625Z,8.17
2019-04-14T03:30:34.020Z,8.20
2019-04-14T03:32:32.345Z,8.17
2019-04-14T03:33:55.788Z,8.20
2019-04-14T03:35:36.382Z,8.31
2019-04-14T03:36:52.886Z,8.32
2019-04-14T03:38:18.582Z,8.34
2019-04-14T03:39:17.854Z,8.31
2019-04-14T03:40:15.361Z,8.46
2019-04-14T03:41:17.243Z,8.41
2019-04-14T03:42:21.351Z,8.42
2019-04-14T03:43:28.314Z,8.41
2019-04-14T03:44:09.956Z,8.41
2019-04-14T03:45:14.293Z,8.44
2019-04-14T03:46:17.446Z,8.42
2019-04-14T03:47:13.509Z,8.34
2019-04-14T03:52:31.654Z,8.39
2019-04-14T03:53:18.869Z,8.46
2019-04-14T03:54:03.416Z,8.47
2019-04-14T03:55:01.065Z,8.50
2019-04-14T03:55:53.835Z,8.49
2019-04-14T03:56:46.330Z,8.50
2019-04-14T03:57:45.464Z,8.57
2019-04-14T03:58:44.459Z,8.53
2019-04-14T03:59:45.573Z,8.47
2019-04-14T04:00:44.396Z,8.47
2019-04-14T04:01:45.584Z,8.49
2019-04-14T04:02:44.513Z,8.52
2019-04-14T04:03:44.261Z,8.57
2019-04-14T04:04:44.499Z,8.56
2019-04-14T04:05:44.231Z,8.56
2019-04-14T04:06:44.355Z,8.56
2019-04-14T04:07:45.370Z,8.57
2019-04-14T04:08:44.208Z,8.65
2019-04-14T04:09:45.353Z,8.47
2019-04-14T04:10:44.361Z,8.47
2019-04-14T04:11:45.432Z,8.46
2019-04-14T04:12:44.405Z,8.29
2019-04-14T04:13:44.146Z,8.21
2019-04-14T04:14:44.268Z,8.10
2019-04-14T04:15:45.396Z,7.96
2019-04-14T04:16:44.110Z,7.78
2019-04-14T04:17:45.151Z,7.74
2019-04-14T04:18:55.753Z,7.66
2019-04-14T04:19:45.079Z,7.62
2019-04-14T04:20:44.067Z,7.64
2019-04-14T04:21:44.479Z,7.52
2019-04-14T04:22:44.045Z,7.52
2019-04-14T04:23:44.662Z,7.44
2019-04-14T04:24:44.025Z,7.37
2019-04-14T04:25:44.436Z,7.40
2019-04-14T04:26:45.049Z,7.47
2019-04-14T04:27:44.087Z,7.46
2019-04-14T04:28:45.095Z,7.50
2019-04-14T04:29:44.095Z,7.61
2019-04-14T04:30:44.922Z,7.64
2019-04-14T04:31:44.012Z,7.61
2019-04-14T04:32:44.792Z,7.68
2019-04-14T04:33:43.931Z,7.61
2019-04-14T04:34:44.548Z,7.74
2019-04-14T04:35:43.910Z,7.62
2019-04-14T04:36:44.206Z,7.58
2019-04-14T04:37:43.885Z,7.57
2019-04-14T04:38:44.255Z,7.46
2019-04-14T04:39:43.864Z,7.46
2019-04-14T04:40:44.035Z,7.55
2019-04-14T04:41:44.983Z,7.44
2019-04-14T04:42:43.831Z,7.55
2019-04-14T04:43:45.089Z,7.69
2019-04-14T04:44:44.168Z,7.76
2019-04-14T04:45:43.797Z,7.80
2019-04-14T04:46:43.887Z,7.92
2019-04-14T04:47:44.805Z,7.95
2019-04-14T04:48:51.330Z,7.96
2019-04-14T04:49:44.768Z,8.01
2019-04-14T04:50:43.746Z,8.10
2019-04-14T04:51:44.330Z,8.09
2019-04-14T04:52:43.727Z,8.14
2019-04-14T04:53:44.045Z,8.10
2019-04-14T04:54:44.904Z,8.12
2019-04-14T04:55:43.917Z,8.16
2019-04-14T04:56:44.791Z,8.06
2019-04-14T04:57:43.856Z,8.13
2019-04-14T04:58:43.657Z,8.17
2019-04-14T04:59:43.650Z,8.09
2019-04-14T05:00:44.816Z,8.12
2019-04-14T05:01:43.629Z,8.13
2019-04-14T05:02:43.875Z,8.16
2019-04-14T05:03:43.604Z,8.12
2019-04-14T05:04:43.901Z,8.05
2019-04-14T05:05:43.583Z,8.06
2019-04-14T05:06:43.786Z,8.10
2019-04-14T05:07:44.773Z,8.06
2019-04-14T05:08:43.568Z,8.06
2019-04-14T05:09:44.754Z,8.09
2019-04-14T05:10:43.655Z,8.20
2019-04-14T05:11:44.728Z,8.13
2019-04-14T05:12:43.658Z,8.05
2019-04-14T05:13:44.423Z,8.12
2019-04-14T05:14:43.556Z,8.12
2019-04-14T05:15:44.608Z,8.12
2019-04-14T05:16:44.024Z,8.16
2019-04-14T05:17:43.451Z,8.13
2019-04-14T05:18:44.116Z,8.09
2019-04-14T05:19:43.620Z,8.06
2019-04-14T05:20:44.152Z,8.23
2019-04-14T05:21:43.409Z,8.20
2019-04-14T05:22:43.962Z,8.21
2019-04-14T05:23:43.389Z,8.16
2019-04-14T05:24:44.039Z,8.24
2019-04-14T05:25:43.369Z,8.26
2019-04-14T05:26:43.820Z,8.29
2019-04-14T05:27:43.345Z,8.26
2019-04-14T05:28:43.860Z,8.19
2019-04-14T05:29:43.330Z,8.26
2019-04-14T05:30:43.636Z,8.28
2019-04-14T05:31:43.302Z,8.24
2019-04-14T05:32:43.530Z,8.17
2019-04-14T05:33:43.279Z,8.26
2019-04-14T05:34:43.365Z,8.34
2019-04-14T05:35:44.433Z,8.31
2019-04-14T05:36:43.313Z,8.35
2019-04-14T05:37:44.368Z,8.38
2019-04-14T05:38:43.222Z,8.44
2019-04-14T05:39:44.042Z,8.46
2019-04-14T05:40:43.201Z,8.57
2019-04-14T05:41:54.987Z,8.53
2019-04-14T05:42:45.041Z,8.56
2019-04-14T05:43:49.730Z,8.37
2019-04-14T05:44:44.821Z,8.49
2019-04-14T05:45:43.684Z,8.52
2019-04-14T05:46:43.135Z,8.49
2019-04-14T05:47:43.632Z,8.53
2019-04-14T05:48:43.120Z,8.47
2019-04-14T05:49:46.902Z,8.57
2019-04-14T05:50:44.368Z,8.55
2019-04-14T05:51:43.716Z,8.70
2019-04-14T05:52:43.077Z,8.59
2019-04-14T05:53:43.786Z,8.55
2019-04-14T05:54:43.049Z,8.50
2019-04-14T05:55:43.820Z,8.55
2019-04-14T05:56:43.031Z,8.47
2019-04-14T05:57:43.796Z,8.52
2019-04-14T05:58:43.023Z,8.60
2019-04-14T05:59:44.019Z,8.57
2019-04-14T06:00:43.734Z,8.74
2019-04-14T06:01:44.235Z,8.71
2019-04-14T06:02:44.082Z,8.89
2019-04-14T06:03:43.269Z,8.95
2019-04-14T06:04:43.891Z,9.03
2019-04-14T06:05:42.938Z,9.16
2019-04-14T06:06:42.921Z,9.23
2019-04-14T06:07:42.910Z,9.24
2019-04-14T06:08:42.905Z,9.14
2019-04-14T06:09:42.887Z,9.11
2019-04-14T06:10:42.876Z,8.98
2019-04-14T06:11:42.868Z,8.92
2019-04-14T06:12:42.855Z,8.96
2019-04-14T06:13:42.845Z,8.95
2019-04-14T06:14:42.835Z,8.88
2019-04-14T06:15:42.825Z,8.72
2019-04-14T06:16:42.811Z,8.80
2019-04-14T06:17:42.799Z,8.71
2019-04-14T06:18:42.792Z,8.83
2019-04-14T06:19:42.779Z,8.81
2019-04-14T06:20:42.770Z,8.85
2019-04-14T06:21:42.777Z,8.83
2019-04-14T06:22:42.746Z,8.72
2019-04-14T06:23:42.737Z,8.56
2019-04-14T06:24:42.733Z,8.50
2019-04-14T06:25:42.717Z,8.42
2019-04-14T06:26:42.711Z,8.29
2019-04-14T06:27:42.707Z,8.26
2019-04-14T06:28:42.683Z,8.20
2019-04-14T06:29:42.675Z,8.28
2019-04-14T06:30:42.662Z,8.10
2019-04-14T06:31:42.649Z,8.12
2019-04-14T06:32:42.642Z,8.16
2019-04-14T06:33:42.635Z,8.05
2019-04-14T06:34:42.619Z,8.06
2019-04-14T06:35:42.609Z,7.95
2019-04-14T06:36:42.592Z,7.95
2019-04-14T06:37:42.587Z,7.96
2019-04-14T06:38:42.580Z,7.94
2019-04-14T06:39:42.563Z,7.96
2019-04-14T06:40:42.568Z,7.99
2019-04-14T06:41:42.543Z,7.99
2019-04-14T06:42:42.542Z,7.95
2019-04-14T06:43:48.620Z,7.95
2019-04-14T06:44:43.515Z,7.94
2019-04-14T06:45:42.513Z,7.80
2019-04-14T06:46:42.500Z,7.76
2019-04-14T06:47:42.477Z,7.71
2019-04-14T06:48:42.475Z,7.76
2019-04-14T06:49:48.740Z,7.81
2019-04-14T06:50:46.241Z,7.80
2019-04-14T06:51:42.431Z,7.84
2019-04-14T06:52:42.463Z,7.83
2019-04-14T06:53:42.415Z,7.81
2019-04-14T06:54:42.404Z,7.77
2019-04-14T06:55:42.395Z,7.78
2019-04-14T06:56:42.374Z,7.81
2019-04-14T06:57:42.362Z,7.76
2019-04-14T06:58:42.353Z,7.84
2019-04-14T06:59:42.352Z,7.87
2019-04-14T07:00:42.334Z,7.91
2019-04-14T07:01:42.328Z,7.78
2019-04-14T07:02:42.315Z,7.77
2019-04-14T07:03:42.299Z,7.81
2019-04-14T07:04:42.296Z,7.66
2019-04-14T07:05:42.277Z,7.55
2019-04-14T07:06:42.274Z,7.52
2019-04-14T07:07:42.259Z,7.47
2019-04-14T07:08:42.247Z,7.50
2019-04-14T07:09:42.241Z,7.52
2019-04-14T07:10:42.228Z,7.50
2019-04-14T07:11:42.215Z,7.52
2019-04-14T07:12:43.143Z,7.57
2019-04-14T07:13:42.192Z,7.62
2019-04-14T07:14:42.179Z,7.58
2019-04-14T07:15:42.167Z,7.47
2019-04-14T07:16:42.155Z,7.49
2019-04-14T07:17:42.151Z,7.49
2019-04-14T07:18:42.137Z,7.55
2019-04-14T07:19:42.126Z,7.46
2019-04-14T07:20:42.114Z,7.55
2019-04-14T07:21:42.110Z,7.57
2019-04-14T07:22:42.095Z,7.57
2019-04-14T07:23:42.090Z,7.57
2019-04-14T07:24:42.072Z,7.76
2019-04-14T07:25:42.064Z,7.69
2019-04-14T07:26:42.047Z,7.80
2019-04-14T07:27:42.036Z,7.83
2019-04-14T07:28:42.034Z,7.92
2019-04-14T07:29:42.022Z,8.01
2019-04-14T07:30:42.003Z,8.06
2019-04-14T07:31:41.993Z,8.06
2019-04-14T07:32:41.982Z,8.21
2019-04-14T07:33:41.972Z,8.24
2019-04-14T07:34:41.962Z,8.26
2019-04-14T07:35:41.950Z,8.31
2019-04-14T07:36:41.942Z,8.20
2019-04-14T07:37:41.934Z,8.21
2019-04-14T07:38:41.918Z,8.23
2019-04-14T07:39:41.914Z,8.20
2019-04-14T07:40:41.906Z,8.16
2019-04-14T07:41:41.891Z,8.23
2019-04-14T07:42:41.876Z,8.24
2019-04-14T07:43:41.864Z,8.16
2019-04-14T07:44:41.863Z,8.13
2019-04-14T07:45:41.843Z,8.13
2019-04-14T07:46:41.837Z,8.13
2019-04-14T07:47:41.823Z,8.17
2019-04-14T07:48:41.814Z,8.20
2019-04-14T07:49:41.815Z,8.23
2019-04-14T07:50:41.789Z,8.31
2019-04-14T07:51:41.776Z,8.23
2019-04-14T07:52:41.766Z,8.32
2019-04-14T07:53:41.757Z,8.24
2019-04-14T07:54:41.742Z,8.20
2019-04-14T07:55:41.731Z,8.20
2019-04-14T07:56:41.722Z,8.26
2019-04-14T07:57:41.714Z,8.29
2019-04-14T07:58:41.696Z,8.23
2019-04-14T07:59:41.692Z,8.19
2019-04-14T08:00:41.683Z,8.20
2019-04-14T08:01:41.668Z,8.16
2019-04-14T08:02:41.658Z,8.12
2019-04-14T08:03:41.649Z,8.02
2019-04-14T08:04:41.637Z,7.86
2019-04-14T08:05:41.633Z,7.91
2019-04-14T08:06:41.665Z,7.87
2019-04-14T08:07:41.614Z,7.76
2019-04-14T08:08:41.600Z,7.74
2019-04-14T08:09:41.588Z,7.74
2019-04-14T08:10:41.570Z,7.76
2019-04-14T08:11:41.568Z,7.78
2019-04-14T08:12:41.552Z,7.76
2019-04-14T08:13:41.544Z,7.58
2019-04-14T08:14:41.536Z,7.61
2019-04-14T08:15:41.527Z,7.60
2019-04-14T08:16:41.517Z,7.52
2019-04-14T08:17:43.598Z,7.58
2019-04-14T08:18:41.481Z,7.58
2019-04-14T08:19:41.472Z,7.61
2019-04-14T08:20:41.470Z,7.69
2019-04-14T08:21:41.455Z,7.76
2019-04-14T08:22:41.454Z,7.68
2019-04-14T08:23:41.430Z,7.73
2019-04-14T08:24:41.427Z,7.74
2019-04-14T08:25:41.406Z,7.60
2019-04-14T08:26:41.397Z,7.69
2019-04-14T08:27:41.387Z,7.73
2019-04-14T08:28:41.376Z,7.66
2019-04-14T08:29:41.365Z,7.71
2019-04-14T08:30:41.357Z,7.64
2019-04-14T08:31:41.348Z,7.74
2019-04-14T08:32:41.343Z,7.84
2019-04-14T08:33:41.328Z,7.91
2019-04-14T08:34:41.329Z,7.81
2019-04-14T08:35:41.309Z,7.83
2019-04-14T08:36:41.295Z,8.01
2019-04-14T08:37:41.282Z,8.01
2019-04-14T08:38:41.271Z,8.06
2019-04-14T08:39:41.256Z,8.10
2019-04-14T08:40:41.256Z,8.13
2019-04-14T08:41:41.249Z,7.96
2019-04-14T08:42:41.227Z,8.10
2019-04-14T08:43:41.217Z,8.17
2019-04-14T08:44:41.216Z,8.23
2019-04-14T08:45:41.188Z,8.19
2019-04-14T08:46:41.189Z,8.32
2019-04-14T08:47:41.175Z,8.32
2019-04-14T08:48:41.156Z,8.47
2019-04-14T08:49:41.161Z,8.38
2019-04-14T08:50:41.139Z,8.42
2019-04-14T08:51:41.137Z,8.52
2019-04-14T08:52:41.121Z,8.50
2019-04-14T08:53:41.106Z,8.38
2019-04-14T08:54:41.109Z,8.28
2019-04-14T08:55:41.086Z,8.24
2019-04-14T08:56:41.078Z,8.21
2019-04-14T08:57:41.059Z,8.31
2019-04-14T08:58:41.051Z,8.47
2019-04-14T08:59:41.046Z,8.46
2019-04-14T09:00:41.034Z,8.52
2019-04-14T09:01:41.016Z,8.70
2019-04-14T09:02:41.008Z,8.88
2019-04-14T09:03:41.007Z,9.03
2019-04-14T09:04:40.986Z,9.16
2019-04-14T09:05:40.978Z,9.30
2019-04-14T09:06:41.040Z,9.52
2019-04-14T09:07:40.958Z,9.50
2019-04-14T09:08:40.945Z,9.50
2019-04-14T09:09:40.931Z,9.50
2019-04-14T09:10:40.931Z,9.55
2019-04-14T09:11:40.905Z,9.37
2019-04-14T09:12:40.914Z,9.22
2019-04-14T09:13:40.883Z,9.16
2019-04-14T09:14:40.875Z,9.16
2019-04-14T09:15:40.868Z,9.18
2019-04-14T09:16:40.848Z,9.36
2019-04-14T09:17:40.850Z,9.51
2019-04-14T09:18:40.835Z,9.84
2019-04-14T09:19:40.819Z,10.17
2019-04-14T09:20:51.624Z,10.39
2019-04-14T09:21:41.806Z,10.62
2019-04-14T09:22:40.789Z,11.04
2019-04-14T09:23:40.777Z,11.30
2019-04-14T09:24:40.779Z,11.62
2019-04-14T09:25:40.756Z,11.64
2019-04-14T09:26:40.742Z,11.69
2019-04-14T09:27:40.735Z,11.70
2019-04-14T09:28:40.724Z,11.66
2019-04-14T09:29:40.726Z,11.49
2019-04-14T09:30:40.710Z,11.28
2019-04-14T09:31:40.701Z,11.23
2019-04-14T09:32:40.682Z,11.18
2019-04-14T09:33:40.662Z,11.12
2019-04-14T09:34:40.658Z,10.94
2019-04-14T09:35:40.664Z,10.68
2019-04-14T09:36:40.633Z,10.52
2019-04-14T09:37:40.631Z,10.48
2019-04-14T09:38:40.633Z,10.28
2019-04-14T09:39:40.600Z,10.03
2019-04-14T09:40:40.594Z,9.81
2019-04-14T09:41:40.585Z,9.83
2019-04-14T09:42:40.571Z,9.75
2019-04-14T09:43:40.559Z,9.67
2019-04-14T09:44:40.586Z,9.60
2019-04-14T09:45:40.539Z,9.51
2019-04-14T09:46:40.524Z,9.30
2019-04-14T09:47:40.516Z,9.41
2019-04-14T09:48:42.839Z,9.42
2019-04-14T09:49:40.492Z,9.51
2019-04-14T09:50:40.481Z,9.62
2019-04-14T09:51:40.993Z,9.67
2019-04-14T09:52:40.470Z,9.84
2019-04-14T09:53:40.465Z,9.96
2019-04-14T09:54:40.438Z,10.24
2019-04-14T09:55:40.431Z,10.09
2019-04-14T09:56:40.414Z,10.28
2019-04-14T09:57:40.405Z,10.39
2019-04-14T09:58:40.395Z,10.43
2019-04-14T09:59:40.383Z,10.70
2019-04-14T10:00:40.398Z,10.94
2019-04-14T10:01:40.368Z,11.40
2019-04-14T10:02:40.348Z,11.93
2019-04-14T10:03:40.338Z,12.63
2019-04-14T10:04:40.331Z,13.13
2019-04-14T10:05:40.316Z,12.99
2019-04-14T10:06:41.008Z,12.50
2019-04-14T10:07:40.298Z,11.55
2019-04-14T10:08:40.282Z,11.48
2019-04-14T10:09:40.270Z,11.70
2019-04-14T10:10:40.261Z,11.84
2019-04-14T10:11:48.526Z,11.89
2019-04-14T10:12:41.242Z,11.89
2019-04-14T10:13:40.225Z,11.95
2019-04-14T10:14:40.221Z,12.13
2019-04-14T10:15:40.210Z,12.40
2019-04-14T10:16:40.199Z,12.80
2019-04-14T10:17:40.192Z,12.79
2019-04-14T10:18:40.192Z,12.76
2019-04-14T10:19:40.169Z,12.55
2019-04-14T10:20:40.171Z,12.59
2019-04-14T10:21:40.159Z,12.43
2019-04-14T10:22:40.134Z,12.11
2019-04-14T10:23:40.118Z,11.84
2019-04-14T10:24:40.110Z,11.59
2019-04-14T10:25:40.104Z,11.33
2019-04-14T10:26:40.092Z,11.34
2019-04-14T10:27:40.084Z,11.43
2019-04-14T10:28:40.069Z,11.45
2019-04-14T10:29:40.065Z,11.40
2019-04-14T10:30:40.037Z,11.13
2019-04-14T10:31:40.029Z,11.13
2019-04-14T10:32:40.021Z,11.22
2019-04-14T10:33:40.019Z,11.23
2019-04-14T10:34:40.007Z,11.49
2019-04-14T10:35:39.985Z,11.58
2019-04-14T10:36:39.976Z,11.74
2019-04-14T10:37:39.964Z,11.87
2019-04-14T10:38:39.955Z,11.93
2019-04-14T10:39:39.956Z,11.69
2019-04-14T10:40:39.931Z,11.45
2019-04-14T10:41:39.923Z,11.34
2019-04-14T10:42:39.909Z,11.38
2019-04-14T10:43:39.906Z,11.11
2019-04-14T10:44:39.922Z,10.86
2019-04-14T10:45:39.876Z,10.85
2019-04-14T10:46:39.867Z,10.86
2019-04-14T10:47:39.852Z,10.87
2019-04-14T10:48:39.845Z,11.08
2019-04-14T10:49:39.831Z,11.00
2019-04-14T10:50:39.822Z,10.93
2019-04-14T10:51:39.811Z,10.94
2019-04-14T10:52:39.797Z,11.00
2019-04-14T10:53:39.791Z,11.12
2019-04-14T10:54:39.779Z,11.20
2019-04-14T10:55:39.764Z,11.20
2019-04-14T10:56:39.750Z,11.13
2019-04-14T10:57:39.742Z,11.13
2019-04-14T10:58:39.747Z,11.18
2019-04-14T10:59:39.736Z,11.28
2019-04-14T11:00:39.711Z,11.56
2019-04-14T11:01:39.700Z,11.77
2019-04-14T11:02:39.690Z,12.11
2019-04-14T11:03:39.680Z,12.22
2019-04-14T11:04:39.666Z,12.48
2019-04-14T11:05:39.665Z,12.73
2019-04-14T11:06:39.644Z,13.04
2019-04-14T11:07:39.632Z,13.23
2019-04-14T11:08:39.623Z,13.51
2019-04-14T11:09:39.617Z,13.91
2019-04-14T11:10:39.602Z,14.01
2019-04-14T11:11:39.610Z,14.26
2019-04-14T11:12:39.577Z,14.85
2019-04-14T11:13:39.573Z,15.23
2019-04-14T11:14:39.568Z,15.63
2019-04-14T11:15:39.550Z,15.76
2019-04-14T11:16:39.538Z,16.76
2019-04-14T11:17:39.526Z,16.74
2019-04-14T11:18:39.522Z,17.07
2019-04-14T11:19:39.505Z,17.84
2019-04-14T11:20:39.500Z,18.41
2019-04-14T11:21:42.826Z,19.08
2019-04-14T11:22:39.496Z,19.74
2019-04-14T11:23:39.459Z,19.87
2019-04-14T11:24:39.453Z,20.63
2019-04-14T11:25:39.445Z,20.39
2019-04-14T11:26:39.431Z,20.30
2019-04-14T11:27:39.419Z,20.79
2019-04-14T11:28:39.412Z,20.14
2019-04-14T11:29:39.407Z,19.99
2019-04-14T11:30:39.395Z,19.37
2019-04-14T11:31:39.377Z,19.37
2019-04-14T11:32:39.368Z,19.82
2019-04-14T11:33:39.357Z,20.00
2019-04-14T11:34:39.346Z,20.46
2019-04-14T11:35:39.342Z,19.32
2019-04-14T11:36:39.324Z,17.57
2019-04-14T11:37:39.311Z,17.16
2019-04-14T11:38:39.317Z,18.54
2019-04-14T11:39:39.294Z,19.92
2019-04-14T11:40:39.280Z,19.34
2019-04-14T11:41:39.281Z,19.30
2019-04-14T11:42:51.638Z,19.84
2019-04-14T11:43:40.260Z,20.33
2019-04-14T11:44:39.241Z,21.00
2019-04-14T11:45:39.278Z,21.35
2019-04-14T11:46:39.229Z,21.07
2019-04-14T11:47:39.218Z,20.98
2019-04-14T11:48:39.205Z,20.58
2019-04-14T11:49:39.199Z,20.17
2019-04-14T11:50:39.191Z,20.98
2019-04-14T11:51:39.173Z,21.29
2019-04-14T11:52:39.163Z,21.25
2019-04-14T11:53:39.156Z,21.82
2019-04-14T11:54:39.141Z,21.96
2019-04-14T11:55:39.128Z,21.43
2019-04-14T11:56:39.120Z,20.44
2019-04-14T11:57:39.114Z,20.68
2019-04-14T11:58:39.105Z,21.13
2019-04-14T11:59:39.093Z,21.19
2019-04-14T12:00:39.085Z,20.39
2019-04-14T12:01:39.080Z,20.80
2019-04-14T12:02:39.067Z,20.14
2019-04-14T12:03:39.074Z,20.56
2019-04-14T12:04:39.051Z,21.25
2019-04-14T12:05:39.037Z,21.20
2019-04-14T12:06:39.036Z,20.82
2019-04-14T12:07:39.013Z,21.96
2019-04-14T12:08:39.011Z,21.35
2019-04-14T12:09:39.002Z,21.48
2019-04-14T12:10:39.015Z,22.09
2019-04-14T12:11:38.974Z,20.92
2019-04-14T12:12:38.964Z,20.58
2019-04-14T12:13:38.960Z,21.56
2019-04-14T12:14:38.949Z,22.00
2019-04-14T12:15:38.935Z,22.15
2019-04-14T12:16:38.926Z,21.40
2019-04-14T12:17:38.916Z,21.26
2019-04-14T12:18:38.920Z,22.22
2019-04-14T12:19:38.913Z,21.80
2019-04-14T12:20:38.885Z,21.28
2019-04-14T12:21:38.879Z,21.10
2019-04-14T12:22:38.886Z,21.69
2019-04-14T12:23:38.871Z,21.48
2019-04-14T12:24:38.860Z,22.06
2019-04-14T12:25:38.843Z,22.91
2019-04-14T12:26:38.846Z,22.52
2019-04-14T12:27:39.734Z,23.10
2019-04-14T12:28:38.839Z,22.46
2019-04-14T12:29:39.069Z,21.88
2019-04-14T12:30:39.878Z,20.85
2019-04-14T12:31:39.611Z,21.85
2019-04-14T12:32:38.783Z,22.33
2019-04-14T12:33:38.760Z,22.12
2019-04-14T12:34:38.751Z,22.58
2019-04-14T12:35:38.754Z,22.30
2019-04-14T12:36:38.731Z,23.13
2019-04-14T12:37:38.718Z,23.11
2019-04-14T12:38:38.716Z,22.95
2019-04-14T12:39:38.705Z,21.88
2019-04-14T12:40:38.878Z,22.43
2019-04-14T12:41:39.756Z,23.37
2019-04-14T12:42:38.670Z,23.01
2019-04-14T12:43:38.667Z,21.53
2019-04-14T12:44:38.655Z,19.99
2019-04-14T12:45:38.642Z,19.12
2019-04-14T12:46:38.634Z,19.37
2019-04-14T12:47:40.289Z,19.53
2019-04-14T12:48:38.611Z,18.57
2019-04-14T12:49:38.615Z,19.09
2019-04-14T12:50:38.623Z,19.27
2019-04-14T12:51:38.588Z,18.66
2019-04-14T12:52:38.589Z,18.28
2019-04-14T12:53:38.564Z,17.99
2019-04-14T12:54:38.559Z,18.18
2019-04-14T12:55:38.557Z,19.27
2019-04-14T12:56:38.531Z,20.07
2019-04-14T12:57:38.520Z,20.25
2019-04-14T12:58:38.517Z,20.34
2019-04-14T12:59:38.499Z,19.87
2019-04-14T13:00:38.490Z,19.19
2019-04-14T13:01:38.485Z,18.68
2019-04-14T13:02:38.472Z,18.58
2019-04-14T13:03:38.458Z,18.20
2019-04-14T13:04:38.448Z,17.87
2019-04-14T13:05:38.436Z,17.38
2019-04-14T13:06:38.428Z,17.02
2019-04-14T13:07:38.419Z,16.84
2019-04-14T13:08:38.433Z,16.43
2019-04-14T13:09:38.401Z,16.29
2019-04-14T13:10:38.385Z,16.08
2019-04-14T13:11:38.377Z,15.87
2019-04-14T13:12:38.413Z,15.70
2019-04-14T13:13:38.353Z,15.77
2019-04-14T13:14:38.344Z,15.83
2019-04-14T13:15:38.333Z,15.95
2019-04-14T13:16:38.322Z,15.91
2019-04-14T13:17:38.307Z,15.90
2019-04-14T13:18:38.313Z,15.78
2019-04-14T13:19:38.288Z,15.63
2019-04-14T13:20:38.277Z,15.51
2019-04-14T13:21:40.392Z,15.36
2019-04-14T13:22:38.260Z,15.30
2019-04-14T13:23:38.247Z,15.25
2019-04-14T13:24:38.241Z,15.27
2019-04-14T13:25:38.226Z,15.29
2019-04-14T13:26:38.218Z,15.38
2019-04-14T13:27:38.209Z,15.29
2019-04-14T13:28:38.190Z,15.19
2019-04-14T13:29:38.184Z,15.19
2019-04-14T13:30:38.184Z,15.10
2019-04-14T13:31:38.164Z,15.01